Aeroporto :
LOGIN :

Iscrizione | Disclaimer

   EN    FR    IT 

 










Sommario :    VFR   VFR Marginale   IFR   IFR Intensivo   IFR Molto Intensivo
Visibilità : 
Base nubi : 
>= 8 km
>= 3000ft
5 / 8 km
1000 / 3000 ft
1500m / 5 km
500 / 1000 ft
800 / 1500m
200 / 500 ft
< 800m
< 200 ft
Simboli :   Temporali  Nebbia  Neve Forte  Precipitazioni Forti  Vento > 20 kt
SIGMETs :   Varie  Temporali  Ghiacco  Turbolenza  Onda orograficha  Ceneri Vulcaniche







- Altitudine del aeroporto : 13 ft
- Codice IATA : OST


EBOS - Oostend bruges Int.

ULTIMO METAR :
  • 191420Z 02013KT 9999 FEW044 23/12 Q1019 NOSIG

METARs OBSOLETI :
  • 191350Z 02012KT 9999 FEW044 23/11 Q1019 NOSIG
  • 191320Z 02011KT 9999 FEW044 23/10 Q1019 NOSIG
  • 191250Z 02010KT 9999 FEW044 23/11 Q1020 NOSIG
  • 191220Z 01010KT 9999 FEW044 23/08 Q1020 NOSIG
  • 191150Z 03009KT 350V050 9999 FEW042 23/10 Q1020 NOSIG

TAF TAF EBOS
Valido dal 19 a 12 ore il 20 a 18 ore UTC


191100Z 1912/2018 03011KT 9999 FEW040
BECMG 2000/2002 09007KT
PROB40
TEMPO 2010/2018 4500 SHRA
Nessun NOTAM noto per questo aeroporto.



MetMap, La meteo Aeronautica in un colpo d'occhio ! - Copyright ORBIFLY Dicembre 2007 - Disclaimer

ORBIFLY MET'MAP TEAM :

Programmazione e sviluppo : Alexandra Zaïnal
Concezione e sviluppo : Baudouin d'Aumeries
Co-Programmazione e sviluppo : Marc-Olivier Méhu
Supporto tecnico e logistico : Manuel Goepfert
Aiuto per la traduzione : Arnaldo La Scala

Contatto : metmap@orbifly.com




FONTI E CREDITI :

   NOAA